createdAt,value
2022-09-03T00:00:11.992Z,18.80
2022-09-03T00:02:52.740Z,18.80
2022-09-03T00:05:23.520Z,18.70
2022-09-03T00:08:14.689Z,18.70
2022-09-03T00:10:44.974Z,18.70
2022-09-03T00:13:34.070Z,18.60
2022-09-03T00:16:05.459Z,18.60
2022-09-03T00:18:35.154Z,18.50
2022-09-03T00:21:10.330Z,18.50
2022-09-03T00:23:42.414Z,18.50
2022-09-03T00:26:12.948Z,18.50
2022-09-03T00:28:55.907Z,18.40
2022-09-03T00:31:39.252Z,18.40
2022-09-03T00:34:23.238Z,18.40
2022-09-03T00:36:51.120Z,18.30
2022-09-03T00:39:21.114Z,18.30
2022-09-03T00:42:26.699Z,18.20
2022-09-03T00:45:00.974Z,18.20
2022-09-03T00:47:52.062Z,18.20
2022-09-03T00:50:41.535Z,18.20
2022-09-03T00:53:23.180Z,18.10
2022-09-03T00:56:02.795Z,18.10
2022-09-03T00:58:48.626Z,18.00
2022-09-03T01:01:21.896Z,18.00
2022-09-03T01:04:11.231Z,17.90
2022-09-03T01:06:43.614Z,17.90
2022-09-03T01:09:29.724Z,17.80
2022-09-03T01:12:08.270Z,17.80
2022-09-03T01:14:44.390Z,17.80
2022-09-03T01:17:52.144Z,17.70
2022-09-03T01:20:35.545Z,17.70
2022-09-03T01:23:20.620Z,17.60
2022-09-03T01:25:55.895Z,17.60
2022-09-03T01:28:54.941Z,17.50
2022-09-03T01:31:48.918Z,17.50
2022-09-03T01:34:31.104Z,17.50
2022-09-03T01:37:28.280Z,17.40
2022-09-03T01:40:03.528Z,17.40
2022-09-03T01:42:50.874Z,17.40
2022-09-03T01:45:36.565Z,17.30
2022-09-03T01:48:13.347Z,17.30
2022-09-03T01:51:01.103Z,17.30
2022-09-03T01:53:35.291Z,17.20
2022-09-03T01:56:45.610Z,17.20
2022-09-03T01:59:35.128Z,17.10
2022-09-03T02:02:25.812Z,17.10
2022-09-03T02:05:14.300Z,17.10
2022-09-03T02:07:45.042Z,17.00
2022-09-03T02:10:17.143Z,17.00
2022-09-03T02:12:49.623Z,17.00
2022-09-03T02:15:21.111Z,17.00
2022-09-03T02:17:50.247Z,17.00
2022-09-03T02:20:22.000Z,17.00
2022-09-03T02:22:50.819Z,17.00
2022-09-03T02:25:44.016Z,16.90
2022-09-03T02:28:17.681Z,16.90
2022-09-03T02:30:55.156Z,16.90
2022-09-03T02:33:22.358Z,16.90
2022-09-03T02:35:49.546Z,16.90
2022-09-03T02:38:19.639Z,16.90
2022-09-03T02:40:47.605Z,17.00
2022-09-03T02:43:52.240Z,17.00
2022-09-03T02:46:27.844Z,16.90
2022-09-03T02:48:55.974Z,16.90
2022-09-03T02:51:23.408Z,16.90
2022-09-03T02:53:50.954Z,16.90
2022-09-03T02:56:18.431Z,16.90
2022-09-03T02:58:46.157Z,16.90
2022-09-03T03:01:23.875Z,16.90
2022-09-03T03:03:51.503Z,16.90
2022-09-03T03:06:21.032Z,16.90
2022-09-03T03:08:50.100Z,16.90
2022-09-03T03:11:20.340Z,16.90
2022-09-03T03:13:47.863Z,16.80
2022-09-03T03:16:17.093Z,16.80
2022-09-03T03:18:46.461Z,16.80
2022-09-03T03:21:18.465Z,16.80
2022-09-03T03:23:45.686Z,16.80
2022-09-03T03:26:15.756Z,16.70
2022-09-03T03:28:43.508Z,16.70
2022-09-03T03:31:16.930Z,16.70
2022-09-03T03:33:45.186Z,16.60
2022-09-03T03:36:15.369Z,16.60
2022-09-03T03:38:44.906Z,16.60
2022-09-03T03:41:19.203Z,16.60
2022-09-03T03:43:46.594Z,16.50
2022-09-03T03:46:15.405Z,16.50
2022-09-03T03:48:43.196Z,16.50
2022-09-03T03:51:10.938Z,16.40
2022-09-03T03:53:38.933Z,16.40
2022-09-03T03:56:12.751Z,16.40
2022-09-03T03:58:44.426Z,16.40
2022-09-03T04:01:15.363Z,16.30
2022-09-03T04:03:42.902Z,16.30
2022-09-03T04:06:11.383Z,16.30
2022-09-03T04:08:43.076Z,16.30
2022-09-03T04:11:14.025Z,16.20
2022-09-03T04:13:43.554Z,16.20
2022-09-03T04:16:16.836Z,16.20
2022-09-03T04:18:44.400Z,16.20
2022-09-03T04:21:33.174Z,16.10
2022-09-03T04:24:00.195Z,16.10
2022-09-03T04:26:32.923Z,16.10
2022-09-03T04:29:02.401Z,16.00
2022-09-03T04:31:30.213Z,16.00
2022-09-03T04:33:58.879Z,16.00
2022-09-03T04:36:28.559Z,15.90
2022-09-03T04:38:58.437Z,15.90
2022-09-03T04:41:27.794Z,15.90
2022-09-03T04:43:56.988Z,15.90
2022-09-03T04:46:26.782Z,15.90
2022-09-03T04:48:55.257Z,15.90
2022-09-03T04:51:27.418Z,15.90
2022-09-03T04:53:57.438Z,15.90
2022-09-03T04:56:27.815Z,15.90
2022-09-03T04:59:01.335Z,15.90
2022-09-03T05:01:31.044Z,15.90
2022-09-03T05:03:59.081Z,15.90
2022-09-03T05:06:26.979Z,15.80
2022-09-03T05:08:55.668Z,15.90
2022-09-03T05:11:23.871Z,15.90
2022-09-03T05:13:53.018Z,15.90
2022-09-03T05:16:21.573Z,15.90
2022-09-03T05:18:53.150Z,15.90
2022-09-03T05:21:20.363Z,16.00
2022-09-03T05:23:53.176Z,16.00
2022-09-03T05:26:36.647Z,16.00
2022-09-03T05:29:08.203Z,16.10
2022-09-03T05:31:39.320Z,16.10
2022-09-03T05:34:07.886Z,16.10
2022-09-03T05:36:37.040Z,16.10
2022-09-03T05:39:05.691Z,16.20
2022-09-03T05:41:36.343Z,16.20
2022-09-03T05:44:04.313Z,16.30
2022-09-03T05:46:33.480Z,16.30
2022-09-03T05:49:06.656Z,16.30
2022-09-03T05:51:35.821Z,16.40
2022-09-03T05:54:03.734Z,16.50
2022-09-03T05:56:33.153Z,16.50
2022-09-03T05:59:03.268Z,16.60
2022-09-03T06:01:41.289Z,16.70
2022-09-03T06:04:15.481Z,16.80
2022-09-03T06:06:47.338Z,16.90
2022-09-03T06:09:23.305Z,17.00
2022-09-03T06:11:52.665Z,17.10
2022-09-03T06:14:21.302Z,17.20
2022-09-03T06:16:50.227Z,17.30
2022-09-03T06:19:17.745Z,17.40
2022-09-03T06:21:46.649Z,17.50
2022-09-03T06:24:16.645Z,17.60
2022-09-03T06:26:45.643Z,17.70
2022-09-03T06:29:13.218Z,17.80
2022-09-03T06:31:40.451Z,17.90
2022-09-03T06:34:08.460Z,18.00
2022-09-03T06:36:35.546Z,18.10
2022-09-03T06:39:02.500Z,18.30
2022-09-03T06:41:33.177Z,18.50
2022-09-03T06:44:04.360Z,18.70
2022-09-03T06:46:35.325Z,19.10
2022-09-03T06:49:03.137Z,19.50
2022-09-03T06:51:32.109Z,19.90
2022-09-03T06:54:06.208Z,20.40
2022-09-03T06:56:39.961Z,20.90
2022-09-03T06:59:15.074Z,21.40
2022-09-03T07:01:46.261Z,22.00
2022-09-03T07:04:19.158Z,22.50
2022-09-03T07:06:47.405Z,23.00
2022-09-03T07:09:15.939Z,23.40
2022-09-03T07:11:48.089Z,23.90
2022-09-03T07:14:20.723Z,24.30
2022-09-03T07:16:49.902Z,24.60
2022-09-03T07:19:17.754Z,25.00
2022-09-03T07:21:50.101Z,25.10
2022-09-03T07:24:20.170Z,25.30
2022-09-03T07:26:49.210Z,25.20
2022-09-03T07:29:21.075Z,25.20
2022-09-03T07:31:53.565Z,25.30
2022-09-03T07:34:25.426Z,25.40
2022-09-03T07:36:54.035Z,25.60
2022-09-03T07:39:21.329Z,25.70
2022-09-03T07:41:48.534Z,25.90
2022-09-03T07:44:20.169Z,26.10
2022-09-03T07:46:51.447Z,26.30
2022-09-03T07:49:20.388Z,26.50
2022-09-03T07:51:50.824Z,26.70
2022-09-03T07:54:18.056Z,26.70
2022-09-03T07:56:45.243Z,26.80
2022-09-03T07:59:12.508Z,27.00
2022-09-03T08:01:41.541Z,27.10
2022-09-03T08:04:10.127Z,27.20
2022-09-03T08:06:38.251Z,27.40
2022-09-03T08:09:07.363Z,27.50
2022-09-03T08:11:38.013Z,27.70
2022-09-03T08:14:10.631Z,27.90
2022-09-03T08:16:49.439Z,28.10
2022-09-03T08:19:21.679Z,28.30
2022-09-03T08:21:49.270Z,28.60
2022-09-03T08:24:18.011Z,28.80
2022-09-03T08:26:51.326Z,29.00
2022-09-03T08:29:19.399Z,29.20
2022-09-03T08:31:46.998Z,29.30
2022-09-03T08:34:14.965Z,29.50
2022-09-03T08:36:42.037Z,29.70
2022-09-03T08:39:10.897Z,29.90
2022-09-03T08:41:53.497Z,30.00
2022-09-03T08:44:41.897Z,30.20
2022-09-03T08:47:16.099Z,30.30
2022-09-03T08:49:49.571Z,30.40
2022-09-03T08:52:28.693Z,30.40
2022-09-03T08:55:06.165Z,30.40
2022-09-03T08:57:41.950Z,30.50
2022-09-03T09:00:09.653Z,30.50
2022-09-03T09:03:17.994Z,30.50
2022-09-03T09:06:11.527Z,30.50
2022-09-03T09:08:48.847Z,30.50
2022-09-03T09:11:29.808Z,30.50
2022-09-03T09:14:03.995Z,30.60
2022-09-03T09:16:55.075Z,30.60
2022-09-03T09:19:34.206Z,30.60
2022-09-03T09:22:06.236Z,30.60
2022-09-03T09:24:55.471Z,30.60
2022-09-03T09:27:24.375Z,30.60
2022-09-03T09:29:53.692Z,30.60
2022-09-03T09:32:21.716Z,30.60
2022-09-03T09:34:52.306Z,30.60
2022-09-03T09:37:20.271Z,30.70
2022-09-03T09:39:59.616Z,30.70
2022-09-03T09:42:30.074Z,30.60
2022-09-03T09:44:57.073Z,30.60
2022-09-03T09:47:33.267Z,30.50
2022-09-03T09:50:02.769Z,30.50
2022-09-03T09:52:31.757Z,30.50
2022-09-03T09:55:13.728Z,30.60
2022-09-03T09:57:41.327Z,30.60
2022-09-03T10:00:13.088Z,30.70
2022-09-03T10:02:49.962Z,30.70
2022-09-03T10:05:25.009Z,30.70
2022-09-03T10:08:22.179Z,30.70
2022-09-03T10:10:52.004Z,30.70
2022-09-03T10:13:48.211Z,30.70
2022-09-03T10:16:28.156Z,30.60
2022-09-03T10:19:16.419Z,30.60
2022-09-03T10:21:58.312Z,30.70
2022-09-03T10:24:32.226Z,30.70
2022-09-03T10:26:59.321Z,30.70
2022-09-03T10:29:30.146Z,30.70
2022-09-03T10:32:07.767Z,30.60
2022-09-03T10:34:37.219Z,30.60
2022-09-03T10:37:23.214Z,30.50
2022-09-03T10:40:02.369Z,30.40
2022-09-03T10:42:29.583Z,30.30
2022-09-03T10:45:09.926Z,30.20
2022-09-03T10:48:10.648Z,30.10
2022-09-03T10:50:56.317Z,30.00
2022-09-03T10:53:26.520Z,29.80
2022-09-03T10:56:10.292Z,29.60
2022-09-03T10:59:15.470Z,29.60
2022-09-03T11:02:10.268Z,29.60
2022-09-03T11:04:56.677Z,29.60
2022-09-03T11:07:30.447Z,29.50
2022-09-03T11:10:06.525Z,29.40
2022-09-03T11:12:40.206Z,29.30
2022-09-03T11:15:32.549Z,29.20
2022-09-03T11:18:15.124Z,29.10
2022-09-03T11:20:43.996Z,29.10
2022-09-03T11:23:15.755Z,29.20
2022-09-03T11:25:53.756Z,29.30
2022-09-03T11:28:48.228Z,29.30
2022-09-03T11:31:36.595Z,29.30
2022-09-03T11:34:17.855Z,29.30
2022-09-03T11:36:50.832Z,29.30
2022-09-03T11:39:24.410Z,29.20
2022-09-03T11:42:06.828Z,29.10
2022-09-03T11:44:47.920Z,29.00
2022-09-03T11:47:42.403Z,28.80
2022-09-03T11:50:21.171Z,28.60
2022-09-03T11:52:52.449Z,28.40
2022-09-03T11:55:43.352Z,28.30
2022-09-03T11:58:20.924Z,28.30
2022-09-03T12:00:49.601Z,28.20
2022-09-03T12:03:18.088Z,28.10
2022-09-03T12:06:08.484Z,28.10
2022-09-03T12:08:50.670Z,28.10
2022-09-03T12:11:48.853Z,28.00
2022-09-03T12:14:58.154Z,28.00
2022-09-03T12:17:40.201Z,27.90
2022-09-03T12:20:18.655Z,27.80
2022-09-03T12:22:45.898Z,27.80
2022-09-03T12:25:15.317Z,27.80
2022-09-03T12:27:48.100Z,27.80
2022-09-03T12:30:22.169Z,27.80
2022-09-03T12:32:51.541Z,27.70
2022-09-03T12:38:18.511Z,27.70
2022-09-03T12:43:43.259Z,27.70
2022-09-03T12:46:17.462Z,27.70
2022-09-03T12:52:06.413Z,27.80
2022-09-03T12:54:37.302Z,27.80
2022-09-03T12:57:05.309Z,27.90
2022-09-03T12:59:35.394Z,27.90
2022-09-03T13:02:12.744Z,27.80
2022-09-03T13:04:41.297Z,27.70
2022-09-03T13:07:27.695Z,27.70
2022-09-03T13:10:04.967Z,27.60
2022-09-03T13:12:52.555Z,27.50
2022-09-03T13:15:25.724Z,27.40
2022-09-03T13:18:26.700Z,27.40
2022-09-03T13:21:31.679Z,27.40
2022-09-03T13:24:20.526Z,27.40
2022-09-03T13:27:41.811Z,27.40
2022-09-03T13:30:19.841Z,27.40
2022-09-03T13:33:11.784Z,27.30
2022-09-03T13:35:54.890Z,27.30
2022-09-03T13:38:23.058Z,27.30
2022-09-03T13:40:50.858Z,27.30
2022-09-03T13:43:35.109Z,27.30
2022-09-03T13:46:18.350Z,27.30
2022-09-03T13:49:05.815Z,27.30
2022-09-03T13:51:57.367Z,27.30
2022-09-03T13:54:48.696Z,27.30
2022-09-03T13:58:01.503Z,27.30
2022-09-03T14:00:46.318Z,27.30
2022-09-03T14:03:40.040Z,27.30
2022-09-03T14:06:32.097Z,27.30
2022-09-03T14:09:25.193Z,27.30
2022-09-03T14:12:38.680Z,27.20
2022-09-03T14:15:20.698Z,27.20
2022-09-03T14:18:03.070Z,27.10
2022-09-03T14:21:08.143Z,27.10
2022-09-03T14:23:53.411Z,27.00
2022-09-03T14:26:39.636Z,27.00
2022-09-03T14:29:17.569Z,27.00
2022-09-03T14:32:26.084Z,27.00
2022-09-03T14:35:12.891Z,26.90
2022-09-03T14:37:59.533Z,26.80
2022-09-03T14:40:46.811Z,26.80
2022-09-03T14:43:53.507Z,26.70
2022-09-03T14:46:35.730Z,26.60
2022-09-03T14:49:05.996Z,26.50
2022-09-03T14:51:52.566Z,26.40
2022-09-03T14:54:48.059Z,26.40
2022-09-03T14:57:19.178Z,26.30
2022-09-03T14:59:46.885Z,26.30
2022-09-03T15:02:42.740Z,26.30
2022-09-03T15:05:39.010Z,26.30
2022-09-03T15:08:19.014Z,26.30
2022-09-03T15:10:59.267Z,26.20
2022-09-03T15:13:30.119Z,26.20
2022-09-03T15:16:44.819Z,26.20
2022-09-03T15:19:43.555Z,26.20
2022-09-03T15:22:20.202Z,26.20
2022-09-03T15:25:03.386Z,26.10
2022-09-03T15:27:58.032Z,26.10
2022-09-03T15:30:41.236Z,26.10
2022-09-03T15:33:30.936Z,26.10
2022-09-03T15:36:18.189Z,26.00
2022-09-03T15:39:11.554Z,26.00
2022-09-03T15:42:02.537Z,26.00
2022-09-03T15:44:42.021Z,26.00
2022-09-03T15:47:14.444Z,25.90
2022-09-03T15:50:05.120Z,25.90
2022-09-03T15:52:41.276Z,25.90
2022-09-03T15:55:26.305Z,25.80
2022-09-03T15:58:09.110Z,25.80
2022-09-03T16:01:21.734Z,25.80
2022-09-03T16:04:31.462Z,25.80
2022-09-03T16:07:31.541Z,25.70
2022-09-03T16:10:25.407Z,25.70
2022-09-03T16:13:14.693Z,25.70
2022-09-03T16:15:49.900Z,25.70
2022-09-03T16:18:30.654Z,25.60
2022-09-03T16:21:07.700Z,25.60
2022-09-03T16:24:01.392Z,25.60
2022-09-03T16:26:37.963Z,25.60
2022-09-03T16:29:19.468Z,25.60
2022-09-03T16:32:15.105Z,25.50
2022-09-03T16:35:10.358Z,25.50
2022-09-03T16:37:59.239Z,25.50
2022-09-03T16:40:40.428Z,25.50
2022-09-03T16:43:41.097Z,25.50
2022-09-03T16:46:29.420Z,25.50
2022-09-03T16:49:17.133Z,25.40
2022-09-03T16:51:57.175Z,25.40
2022-09-03T16:54:55.654Z,25.40
2022-09-03T16:57:40.447Z,25.30
2022-09-03T17:00:19.880Z,25.30
2022-09-03T17:03:05.782Z,25.20
2022-09-03T17:06:00.903Z,25.20
2022-09-03T17:09:00.743Z,25.20
2022-09-03T17:11:39.769Z,25.10
2022-09-03T17:14:47.798Z,25.10
2022-09-03T17:17:41.103Z,25.00
2022-09-03T17:20:49.186Z,25.00
2022-09-03T17:23:54.209Z,25.00
2022-09-03T17:26:35.460Z,24.90
2022-09-03T17:29:18.329Z,24.90
2022-09-03T17:32:12.618Z,24.80
2022-09-03T17:34:58.290Z,24.80
2022-09-03T17:37:50.767Z,24.70
2022-09-03T17:40:53.675Z,24.60
2022-09-03T17:43:29.342Z,24.60
2022-09-03T17:46:05.100Z,24.60
2022-09-03T17:48:56.196Z,24.50
2022-09-03T17:51:46.596Z,24.50
2022-09-03T17:54:34.122Z,24.40
2022-09-03T17:57:20.600Z,24.40
2022-09-03T18:00:07.426Z,24.30
2022-09-03T18:03:15.851Z,24.30
2022-09-03T18:05:59.552Z,24.30
2022-09-03T18:09:01.295Z,24.20
2022-09-03T18:11:34.989Z,24.10
2022-09-03T18:14:13.467Z,24.10
2022-09-03T18:17:12.032Z,24.10
2022-09-03T18:20:33.375Z,24.10
2022-09-03T18:23:59.990Z,24.00
2022-09-03T18:27:05.034Z,24.00
2022-09-03T18:30:07.895Z,24.00
2022-09-03T18:32:53.314Z,23.90
2022-09-03T18:35:38.966Z,23.90
2022-09-03T18:38:25.317Z,23.80
2022-09-03T18:41:36.070Z,23.80
2022-09-03T18:44:30.928Z,23.70
2022-09-03T18:48:01.874Z,23.70
2022-09-03T18:51:07.931Z,23.70
2022-09-03T18:54:16.897Z,23.60
2022-09-03T18:57:09.595Z,23.60
2022-09-03T19:00:28.961Z,23.50
2022-09-03T19:03:36.515Z,23.50
2022-09-03T19:07:10.003Z,23.40
2022-09-03T19:10:04.163Z,23.30
2022-09-03T19:13:07.185Z,23.20
2022-09-03T19:16:39.358Z,23.20
2022-09-03T19:19:47.567Z,23.10
2022-09-03T19:22:51.720Z,23.10
2022-09-03T19:25:37.712Z,23.00
2022-09-03T19:28:35.612Z,23.00
2022-09-03T19:31:45.708Z,23.00
2022-09-03T19:34:43.659Z,22.90
2022-09-03T19:38:08.219Z,22.80
2022-09-03T19:41:32.046Z,22.80
2022-09-03T19:44:24.028Z,22.70
2022-09-03T19:47:14.664Z,22.70
2022-09-03T19:50:24.885Z,22.70
2022-09-03T19:53:29.246Z,22.60
2022-09-03T19:56:19.422Z,22.60
2022-09-03T19:59:10.563Z,22.50
2022-09-03T20:01:57.291Z,22.50
2022-09-03T20:04:55.042Z,22.50
2022-09-03T20:07:42.224Z,22.40
2022-09-03T20:10:25.355Z,22.40
2022-09-03T20:13:14.080Z,22.30
2022-09-03T20:16:07.334Z,22.30
2022-09-03T20:18:53.212Z,22.30
2022-09-03T20:21:46.514Z,22.20
2022-09-03T20:24:26.017Z,22.20
2022-09-03T20:27:27.503Z,22.20
2022-09-03T20:30:05.622Z,22.20
2022-09-03T20:32:35.485Z,22.10
2022-09-03T20:35:29.350Z,22.10
2022-09-03T20:38:09.225Z,22.10
2022-09-03T20:41:01.857Z,22.10
2022-09-03T20:43:29.730Z,22.00
2022-09-03T20:46:04.955Z,22.00
2022-09-03T20:48:51.311Z,22.00
2022-09-03T20:51:22.908Z,22.00
2022-09-03T20:54:30.047Z,22.00
2022-09-03T20:57:09.711Z,21.90
2022-09-03T21:00:12.864Z,21.90
2022-09-03T21:02:57.197Z,21.90
2022-09-03T21:05:31.575Z,21.90
2022-09-03T21:08:30.053Z,21.80
2022-09-03T21:10:59.007Z,21.80
2022-09-03T21:14:04.711Z,21.80
2022-09-03T21:16:54.209Z,21.80
2022-09-03T21:19:21.238Z,21.80
2022-09-03T21:21:58.686Z,21.80
2022-09-03T21:24:51.229Z,21.80
2022-09-03T21:27:24.399Z,21.80
2022-09-03T21:30:02.720Z,21.80
2022-09-03T21:32:36.735Z,21.80
2022-09-03T21:35:16.536Z,21.80
2022-09-03T21:37:55.761Z,21.80
2022-09-03T21:40:29.198Z,21.80
2022-09-03T21:43:02.363Z,21.80
2022-09-03T21:45:39.694Z,21.70
2022-09-03T21:48:12.931Z,21.70
2022-09-03T21:51:07.700Z,21.70
2022-09-03T21:53:57.448Z,21.70
2022-09-03T21:56:46.539Z,21.60
2022-09-03T21:59:25.959Z,21.70
2022-09-03T22:02:18.205Z,21.60
2022-09-03T22:04:45.286Z,21.60
2022-09-03T22:07:44.456Z,21.60
2022-09-03T22:10:40.003Z,21.50
2022-09-03T22:13:15.062Z,21.50
2022-09-03T22:15:48.389Z,21.50
2022-09-03T22:18:29.606Z,21.40
2022-09-03T22:21:44.367Z,21.40
2022-09-03T22:25:15.117Z,21.40
2022-09-03T22:27:51.084Z,21.40
2022-09-03T22:30:21.700Z,21.40
2022-09-03T22:33:15.997Z,21.30
2022-09-03T22:35:59.386Z,21.30
2022-09-03T22:38:55.372Z,21.30
2022-09-03T22:41:41.149Z,21.30
2022-09-03T22:44:44.581Z,21.20
2022-09-03T22:47:25.771Z,21.20
2022-09-03T22:50:07.037Z,21.20
2022-09-03T22:53:17.099Z,21.20
2022-09-03T22:56:00.292Z,21.10
2022-09-03T22:58:34.548Z,21.10
2022-09-03T23:01:32.116Z,21.10
2022-09-03T23:04:27.512Z,21.10
2022-09-03T23:07:02.157Z,21.10
2022-09-03T23:09:36.495Z,21.00
2022-09-03T23:12:11.097Z,21.10
2022-09-03T23:14:49.157Z,21.10
2022-09-03T23:20:14.024Z,21.00
2022-09-03T23:22:59.677Z,21.00
2022-09-03T23:25:43.851Z,20.90
2022-09-03T23:28:49.273Z,20.90
2022-09-03T23:31:22.636Z,20.90
2022-09-03T23:33:52.623Z,20.80
2022-09-03T23:37:05.903Z,20.80
2022-09-03T23:39:40.013Z,20.80
2022-09-03T23:42:10.342Z,20.70
2022-09-03T23:44:52.021Z,20.70
2022-09-03T23:47:41.737Z,20.70
2022-09-03T23:50:28.124Z,20.70
2022-09-03T23:53:07.354Z,20.60
2022-09-03T23:55:37.217Z,20.60
2022-09-03T23:58:25.719Z,20.60
